sensor_id;sensor_type;location;lat;lon;timestamp;P1;durP1;ratioP1;P2;durP2;ratioP2
4837;SDS011;2433;48.768;9.154;2023-11-19T00:01:10;2.17;;;1.00;;
4837;SDS011;2433;48.768;9.154;2023-11-19T00:03:36;2.30;;;1.20;;
4837;SDS011;2433;48.768;9.154;2023-11-19T00:06:01;1.60;;;1.13;;
4837;SDS011;2433;48.768;9.154;2023-11-19T00:08:29;1.43;;;1.33;;
4837;SDS011;2433;48.768;9.154;2023-11-19T00:10:55;1.57;;;1.00;;
4837;SDS011;2433;48.768;9.154;2023-11-19T00:13:20;2.23;;;1.20;;
4837;SDS011;2433;48.768;9.154;2023-11-19T00:15:46;0.80;;;0.80;;
4837;SDS011;2433;48.768;9.154;2023-11-19T00:18:12;1.40;;;1.20;;
4837;SDS011;2433;48.768;9.154;2023-11-19T00:20:39;1.00;;;0.90;;
4837;SDS011;2433;48.768;9.154;2023-11-19T00:23:05;4.87;;;1.10;;
4837;SDS011;2433;48.768;9.154;2023-11-19T00:25:31;2.90;;;1.27;;
4837;SDS011;2433;48.768;9.154;2023-11-19T00:27:57;1.70;;;1.13;;
4837;SDS011;2433;48.768;9.154;2023-11-19T00:30:23;1.00;;;0.47;;
4837;SDS011;2433;48.768;9.154;2023-11-19T00:32:48;0.80;;;0.47;;
4837;SDS011;2433;48.768;9.154;2023-11-19T00:35:14;0.83;;;0.60;;
4837;SDS011;2433;48.768;9.154;2023-11-19T00:37:40;0.80;;;0.80;;
4837;SDS011;2433;48.768;9.154;2023-11-19T00:40:05;1.00;;;0.70;;
4837;SDS011;2433;48.768;9.154;2023-11-19T00:42:31;1.03;;;0.50;;
4837;SDS011;2433;48.768;9.154;2023-11-19T00:44:57;1.30;;;0.90;;
4837;SDS011;2433;48.768;9.154;2023-11-19T00:47:23;1.80;;;0.87;;
4837;SDS011;2433;48.768;9.154;2023-11-19T00:49:48;2.17;;;0.97;;
4837;SDS011;2433;48.768;9.154;2023-11-19T00:52:14;1.40;;;0.37;;
4837;SDS011;2433;48.768;9.154;2023-11-19T00:54:41;0.80;;;0.40;;
4837;SDS011;2433;48.768;9.154;2023-11-19T00:57:07;0.80;;;0.53;;
4837;SDS011;2433;48.768;9.154;2023-11-19T00:59:33;1.03;;;0.50;;
4837;SDS011;2433;48.768;9.154;2023-11-19T01:01:59;0.60;;;0.40;;
4837;SDS011;2433;48.768;9.154;2023-11-19T01:04:29;0.60;;;0.50;;
4837;SDS011;2433;48.768;9.154;2023-11-19T01:06:55;1.00;;;0.83;;
4837;SDS011;2433;48.768;9.154;2023-11-19T01:09:20;0.60;;;0.50;;
4837;SDS011;2433;48.768;9.154;2023-11-19T01:11:46;1.13;;;0.50;;
4837;SDS011;2433;48.768;9.154;2023-11-19T01:14:11;0.80;;;0.60;;
4837;SDS011;2433;48.768;9.154;2023-11-19T01:16:37;0.60;;;0.40;;
4837;SDS011;2433;48.768;9.154;2023-11-19T01:19:02;0.70;;;0.50;;
4837;SDS011;2433;48.768;9.154;2023-11-19T01:21:30;0.90;;;0.70;;
4837;SDS011;2433;48.768;9.154;2023-11-19T01:23:57;0.53;;;0.40;;
4837;SDS011;2433;48.768;9.154;2023-11-19T01:26:24;0.63;;;0.30;;
4837;SDS011;2433;48.768;9.154;2023-11-19T01:28:50;0.83;;;0.40;;
4837;SDS011;2433;48.768;9.154;2023-11-19T01:31:18;0.87;;;0.43;;
4837;SDS011;2433;48.768;9.154;2023-11-19T01:33:43;0.70;;;0.50;;
4837;SDS011;2433;48.768;9.154;2023-11-19T01:36:09;0.50;;;0.30;;
4837;SDS011;2433;48.768;9.154;2023-11-19T01:38:35;1.33;;;0.30;;
4837;SDS011;2433;48.768;9.154;2023-11-19T01:41:01;0.60;;;0.30;;
4837;SDS011;2433;48.768;9.154;2023-11-19T01:43:34;0.40;;;0.20;;
4837;SDS011;2433;48.768;9.154;2023-11-19T01:46:01;1.07;;;0.40;;
4837;SDS011;2433;48.768;9.154;2023-11-19T01:48:28;0.40;;;0.20;;
4837;SDS011;2433;48.768;9.154;2023-11-19T01:50:54;0.40;;;0.20;;
4837;SDS011;2433;48.768;9.154;2023-11-19T01:53:20;0.40;;;0.20;;
4837;SDS011;2433;48.768;9.154;2023-11-19T01:55:47;0.40;;;0.20;;
4837;SDS011;2433;48.768;9.154;2023-11-19T01:58:13;0.70;;;0.30;;
4837;SDS011;2433;48.768;9.154;2023-11-19T02:00:39;1.00;;;0.53;;
4837;SDS011;2433;48.768;9.154;2023-11-19T02:03:05;0.50;;;0.30;;
4837;SDS011;2433;48.768;9.154;2023-11-19T02:05:33;0.60;;;0.30;;
4837;SDS011;2433;48.768;9.154;2023-11-19T02:08:00;0.50;;;0.30;;
4837;SDS011;2433;48.768;9.154;2023-11-19T02:10:26;0.60;;;0.30;;
4837;SDS011;2433;48.768;9.154;2023-11-19T02:12:54;0.50;;;0.30;;
4837;SDS011;2433;48.768;9.154;2023-11-19T02:15:20;0.40;;;0.20;;
4837;SDS011;2433;48.768;9.154;2023-11-19T02:17:50;0.40;;;0.20;;
4837;SDS011;2433;48.768;9.154;2023-11-19T02:20:16;0.63;;;0.30;;
4837;SDS011;2433;48.768;9.154;2023-11-19T02:22:41;0.40;;;0.30;;
4837;SDS011;2433;48.768;9.154;2023-11-19T02:25:08;0.50;;;0.30;;
4837;SDS011;2433;48.768;9.154;2023-11-19T02:27:53;0.50;;;0.23;;
4837;SDS011;2433;48.768;9.154;2023-11-19T02:30:22;0.40;;;0.20;;
4837;SDS011;2433;48.768;9.154;2023-11-19T02:32:55;1.77;;;0.30;;
4837;SDS011;2433;48.768;9.154;2023-11-19T02:35:22;0.93;;;0.40;;
4837;SDS011;2433;48.768;9.154;2023-11-19T02:37:48;0.40;;;0.20;;
4837;SDS011;2433;48.768;9.154;2023-11-19T02:40:14;0.40;;;0.30;;
4837;SDS011;2433;48.768;9.154;2023-11-19T02:42:39;0.60;;;0.30;;
4837;SDS011;2433;48.768;9.154;2023-11-19T02:45:05;0.40;;;0.20;;
4837;SDS011;2433;48.768;9.154;2023-11-19T02:47:32;0.40;;;0.20;;
4837;SDS011;2433;48.768;9.154;2023-11-19T02:49:59;0.90;;;0.20;;
4837;SDS011;2433;48.768;9.154;2023-11-19T02:52:25;0.40;;;0.20;;
4837;SDS011;2433;48.768;9.154;2023-11-19T02:54:51;0.40;;;0.20;;
4837;SDS011;2433;48.768;9.154;2023-11-19T02:57:17;0.40;;;0.20;;
4837;SDS011;2433;48.768;9.154;2023-11-19T02:59:46;0.40;;;0.23;;
4837;SDS011;2433;48.768;9.154;2023-11-19T03:02:11;0.40;;;0.20;;
4837;SDS011;2433;48.768;9.154;2023-11-19T03:04:37;0.40;;;0.20;;
4837;SDS011;2433;48.768;9.154;2023-11-19T03:07:07;0.50;;;0.30;;
4837;SDS011;2433;48.768;9.154;2023-11-19T03:09:33;0.40;;;0.30;;
4837;SDS011;2433;48.768;9.154;2023-11-19T03:12:00;0.40;;;0.20;;
4837;SDS011;2433;48.768;9.154;2023-11-19T03:14:26;0.60;;;0.20;;
4837;SDS011;2433;48.768;9.154;2023-11-19T03:16:52;0.60;;;0.40;;
4837;SDS011;2433;48.768;9.154;2023-11-19T03:19:18;0.50;;;0.30;;
4837;SDS011;2433;48.768;9.154;2023-11-19T03:21:44;0.40;;;0.20;;
4837;SDS011;2433;48.768;9.154;2023-11-19T03:24:10;1.00;;;0.37;;
4837;SDS011;2433;48.768;9.154;2023-11-19T03:26:38;0.40;;;0.20;;
4837;SDS011;2433;48.768;9.154;2023-11-19T03:29:03;0.40;;;0.20;;
4837;SDS011;2433;48.768;9.154;2023-11-19T03:31:29;0.50;;;0.20;;
4837;SDS011;2433;48.768;9.154;2023-11-19T03:33:54;0.50;;;0.30;;
4837;SDS011;2433;48.768;9.154;2023-11-19T03:36:20;0.50;;;0.20;;
4837;SDS011;2433;48.768;9.154;2023-11-19T03:38:45;0.63;;;0.30;;
4837;SDS011;2433;48.768;9.154;2023-11-19T03:41:12;0.50;;;0.20;;
4837;SDS011;2433;48.768;9.154;2023-11-19T03:43:38;0.40;;;0.20;;
4837;SDS011;2433;48.768;9.154;2023-11-19T03:46:04;0.40;;;0.20;;
4837;SDS011;2433;48.768;9.154;2023-11-19T03:48:31;0.40;;;0.20;;
4837;SDS011;2433;48.768;9.154;2023-11-19T03:50:56;0.40;;;0.20;;
4837;SDS011;2433;48.768;9.154;2023-11-19T03:53:22;0.80;;;0.20;;
4837;SDS011;2433;48.768;9.154;2023-11-19T03:55:49;1.03;;;0.30;;
4837;SDS011;2433;48.768;9.154;2023-11-19T03:58:15;0.40;;;0.20;;
4837;SDS011;2433;48.768;9.154;2023-11-19T04:00:41;0.50;;;0.30;;
4837;SDS011;2433;48.768;9.154;2023-11-19T04:03:06;0.40;;;0.20;;
4837;SDS011;2433;48.768;9.154;2023-11-19T04:05:32;0.50;;;0.30;;
4837;SDS011;2433;48.768;9.154;2023-11-19T04:07:57;0.93;;;0.20;;
4837;SDS011;2433;48.768;9.154;2023-11-19T04:10:23;0.40;;;0.23;;
4837;SDS011;2433;48.768;9.154;2023-11-19T04:12:49;0.40;;;0.20;;
4837;SDS011;2433;48.768;9.154;2023-11-19T04:15:15;0.40;;;0.17;;
4837;SDS011;2433;48.768;9.154;2023-11-19T04:17:41;0.40;;;0.20;;
4837;SDS011;2433;48.768;9.154;2023-11-19T04:20:06;0.40;;;0.20;;
4837;SDS011;2433;48.768;9.154;2023-11-19T04:22:36;0.70;;;0.30;;
4837;SDS011;2433;48.768;9.154;2023-11-19T04:25:01;0.50;;;0.30;;
4837;SDS011;2433;48.768;9.154;2023-11-19T04:27:27;0.40;;;0.20;;
4837;SDS011;2433;48.768;9.154;2023-11-19T04:29:52;0.40;;;0.20;;
4837;SDS011;2433;48.768;9.154;2023-11-19T04:32:18;0.93;;;0.27;;
4837;SDS011;2433;48.768;9.154;2023-11-19T04:34:44;0.60;;;0.30;;
4837;SDS011;2433;48.768;9.154;2023-11-19T04:37:10;0.50;;;0.30;;
4837;SDS011;2433;48.768;9.154;2023-11-19T04:39:36;0.40;;;0.20;;
4837;SDS011;2433;48.768;9.154;2023-11-19T04:42:02;0.40;;;0.27;;
4837;SDS011;2433;48.768;9.154;2023-11-19T04:44:29;0.47;;;0.23;;
4837;SDS011;2433;48.768;9.154;2023-11-19T04:46:55;0.40;;;0.20;;
4837;SDS011;2433;48.768;9.154;2023-11-19T04:49:21;0.60;;;0.30;;
4837;SDS011;2433;48.768;9.154;2023-11-19T04:51:46;0.60;;;0.20;;
4837;SDS011;2433;48.768;9.154;2023-11-19T04:54:16;0.60;;;0.20;;
4837;SDS011;2433;48.768;9.154;2023-11-19T04:56:44;0.40;;;0.20;;
4837;SDS011;2433;48.768;9.154;2023-11-19T04:59:11;0.50;;;0.20;;
4837;SDS011;2433;48.768;9.154;2023-11-19T05:01:36;0.47;;;0.20;;
4837;SDS011;2433;48.768;9.154;2023-11-19T05:04:02;0.40;;;0.20;;
4837;SDS011;2433;48.768;9.154;2023-11-19T05:06:28;0.40;;;0.20;;
4837;SDS011;2433;48.768;9.154;2023-11-19T05:08:57;0.40;;;0.20;;
4837;SDS011;2433;48.768;9.154;2023-11-19T05:11:24;0.40;;;0.20;;
4837;SDS011;2433;48.768;9.154;2023-11-19T05:13:49;0.50;;;0.27;;
4837;SDS011;2433;48.768;9.154;2023-11-19T05:16:16;0.40;;;0.20;;
4837;SDS011;2433;48.768;9.154;2023-11-19T05:18:42;0.40;;;0.30;;
4837;SDS011;2433;48.768;9.154;2023-11-19T05:21:08;0.40;;;0.20;;
4837;SDS011;2433;48.768;9.154;2023-11-19T05:23:34;0.40;;;0.20;;
4837;SDS011;2433;48.768;9.154;2023-11-19T05:26:00;1.57;;;0.30;;
4837;SDS011;2433;48.768;9.154;2023-11-19T05:28:26;0.50;;;0.20;;
4837;SDS011;2433;48.768;9.154;2023-11-19T05:30:52;0.40;;;0.20;;
4837;SDS011;2433;48.768;9.154;2023-11-19T05:33:17;0.40;;;0.20;;
4837;SDS011;2433;48.768;9.154;2023-11-19T05:35:43;0.40;;;0.20;;
4837;SDS011;2433;48.768;9.154;2023-11-19T05:38:08;0.40;;;0.20;;
4837;SDS011;2433;48.768;9.154;2023-11-19T05:40:35;0.40;;;0.20;;
4837;SDS011;2433;48.768;9.154;2023-11-19T05:43:00;0.40;;;0.20;;
4837;SDS011;2433;48.768;9.154;2023-11-19T05:45:26;0.77;;;0.30;;
4837;SDS011;2433;48.768;9.154;2023-11-19T05:47:52;0.40;;;0.20;;
4837;SDS011;2433;48.768;9.154;2023-11-19T05:50:17;0.50;;;0.30;;
4837;SDS011;2433;48.768;9.154;2023-11-19T05:52:43;0.50;;;0.20;;
4837;SDS011;2433;48.768;9.154;2023-11-19T05:55:08;0.47;;;0.23;;
4837;SDS011;2433;48.768;9.154;2023-11-19T05:57:36;0.50;;;0.20;;
4837;SDS011;2433;48.768;9.154;2023-11-19T06:00:03;0.50;;;0.20;;
4837;SDS011;2433;48.768;9.154;2023-11-19T06:02:37;0.70;;;0.30;;
4837;SDS011;2433;48.768;9.154;2023-11-19T06:05:05;0.40;;;0.20;;
4837;SDS011;2433;48.768;9.154;2023-11-19T06:07:32;0.40;;;0.20;;
4837;SDS011;2433;48.768;9.154;2023-11-19T06:09:58;0.40;;;0.20;;
4837;SDS011;2433;48.768;9.154;2023-11-19T06:12:24;0.60;;;0.37;;
4837;SDS011;2433;48.768;9.154;2023-11-19T06:14:49;0.40;;;0.20;;
4837;SDS011;2433;48.768;9.154;2023-11-19T06:17:15;0.40;;;0.20;;
4837;SDS011;2433;48.768;9.154;2023-11-19T06:19:40;0.50;;;0.30;;
4837;SDS011;2433;48.768;9.154;2023-11-19T06:22:06;0.40;;;0.20;;
4837;SDS011;2433;48.768;9.154;2023-11-19T06:24:31;0.60;;;0.30;;
4837;SDS011;2433;48.768;9.154;2023-11-19T06:26:58;0.50;;;0.20;;
4837;SDS011;2433;48.768;9.154;2023-11-19T06:29:23;0.50;;;0.30;;
4837;SDS011;2433;48.768;9.154;2023-11-19T06:31:50;0.70;;;0.27;;
4837;SDS011;2433;48.768;9.154;2023-11-19T06:34:15;0.50;;;0.20;;
4837;SDS011;2433;48.768;9.154;2023-11-19T06:36:41;0.40;;;0.20;;
4837;SDS011;2433;48.768;9.154;2023-11-19T06:39:09;0.50;;;0.30;;
4837;SDS011;2433;48.768;9.154;2023-11-19T06:41:36;0.50;;;0.20;;
4837;SDS011;2433;48.768;9.154;2023-11-19T06:44:03;0.40;;;0.20;;
4837;SDS011;2433;48.768;9.154;2023-11-19T06:46:30;0.50;;;0.30;;
4837;SDS011;2433;48.768;9.154;2023-11-19T06:48:56;0.50;;;0.30;;
4837;SDS011;2433;48.768;9.154;2023-11-19T06:51:22;0.77;;;0.30;;
4837;SDS011;2433;48.768;9.154;2023-11-19T06:53:47;0.77;;;0.40;;
4837;SDS011;2433;48.768;9.154;2023-11-19T06:56:20;0.40;;;0.20;;
4837;SDS011;2433;48.768;9.154;2023-11-19T06:58:49;1.30;;;0.43;;
4837;SDS011;2433;48.768;9.154;2023-11-19T07:01:16;0.50;;;0.30;;
4837;SDS011;2433;48.768;9.154;2023-11-19T07:03:46;0.60;;;0.20;;
4837;SDS011;2433;48.768;9.154;2023-11-19T07:06:12;0.53;;;0.20;;
4837;SDS011;2433;48.768;9.154;2023-11-19T07:08:38;0.40;;;0.20;;
4837;SDS011;2433;48.768;9.154;2023-11-19T07:11:04;0.63;;;0.33;;
4837;SDS011;2433;48.768;9.154;2023-11-19T07:13:30;0.40;;;0.30;;
4837;SDS011;2433;48.768;9.154;2023-11-19T07:15:56;0.47;;;0.30;;
4837;SDS011;2433;48.768;9.154;2023-11-19T07:18:21;0.77;;;0.60;;
4837;SDS011;2433;48.768;9.154;2023-11-19T07:20:47;0.70;;;0.70;;
4837;SDS011;2433;48.768;9.154;2023-11-19T07:23:13;0.80;;;0.43;;
4837;SDS011;2433;48.768;9.154;2023-11-19T07:25:44;0.67;;;0.30;;
4837;SDS011;2433;48.768;9.154;2023-11-19T07:28:13;0.83;;;0.50;;
4837;SDS011;2433;48.768;9.154;2023-11-19T07:30:39;0.50;;;0.30;;
4837;SDS011;2433;48.768;9.154;2023-11-19T07:33:05;0.50;;;0.50;;
4837;SDS011;2433;48.768;9.154;2023-11-19T07:35:31;0.60;;;0.50;;
4837;SDS011;2433;48.768;9.154;2023-11-19T07:37:57;0.50;;;0.30;;
4837;SDS011;2433;48.768;9.154;2023-11-19T07:40:23;0.50;;;0.30;;
4837;SDS011;2433;48.768;9.154;2023-11-19T07:42:49;0.50;;;0.30;;
4837;SDS011;2433;48.768;9.154;2023-11-19T07:45:15;0.50;;;0.30;;
4837;SDS011;2433;48.768;9.154;2023-11-19T07:47:42;0.50;;;0.30;;
4837;SDS011;2433;48.768;9.154;2023-11-19T07:50:10;0.40;;;0.20;;
4837;SDS011;2433;48.768;9.154;2023-11-19T07:52:35;0.73;;;0.40;;
4837;SDS011;2433;48.768;9.154;2023-11-19T07:55:01;1.03;;;0.40;;
4837;SDS011;2433;48.768;9.154;2023-11-19T07:57:28;0.60;;;0.30;;
4837;SDS011;2433;48.768;9.154;2023-11-19T07:59:56;0.77;;;0.40;;
4837;SDS011;2433;48.768;9.154;2023-11-19T08:02:22;2.43;;;0.67;;
4837;SDS011;2433;48.768;9.154;2023-11-19T08:04:49;0.50;;;0.30;;
4837;SDS011;2433;48.768;9.154;2023-11-19T08:07:17;0.40;;;0.20;;
4837;SDS011;2433;48.768;9.154;2023-11-19T08:09:43;0.40;;;0.30;;
4837;SDS011;2433;48.768;9.154;2023-11-19T08:12:09;0.40;;;0.23;;
4837;SDS011;2433;48.768;9.154;2023-11-19T08:14:35;0.90;;;0.30;;
4837;SDS011;2433;48.768;9.154;2023-11-19T08:17:00;0.40;;;0.30;;
4837;SDS011;2433;48.768;9.154;2023-11-19T08:19:26;0.40;;;0.20;;
4837;SDS011;2433;48.768;9.154;2023-11-19T08:21:52;0.40;;;0.20;;
4837;SDS011;2433;48.768;9.154;2023-11-19T08:24:17;0.60;;;0.30;;
4837;SDS011;2433;48.768;9.154;2023-11-19T08:26:43;0.50;;;0.30;;
4837;SDS011;2433;48.768;9.154;2023-11-19T08:29:08;1.00;;;0.50;;
4837;SDS011;2433;48.768;9.154;2023-11-19T08:31:34;0.90;;;0.50;;
4837;SDS011;2433;48.768;9.154;2023-11-19T08:34:00;0.50;;;0.30;;
4837;SDS011;2433;48.768;9.154;2023-11-19T08:36:26;0.60;;;0.30;;
4837;SDS011;2433;48.768;9.154;2023-11-19T08:38:53;0.60;;;0.50;;
4837;SDS011;2433;48.768;9.154;2023-11-19T08:41:19;0.40;;;0.30;;
4837;SDS011;2433;48.768;9.154;2023-11-19T08:43:44;0.83;;;0.43;;
4837;SDS011;2433;48.768;9.154;2023-11-19T08:46:11;0.47;;;0.37;;
4837;SDS011;2433;48.768;9.154;2023-11-19T08:48:37;0.40;;;0.20;;
4837;SDS011;2433;48.768;9.154;2023-11-19T08:51:03;0.50;;;0.30;;
4837;SDS011;2433;48.768;9.154;2023-11-19T08:53:30;0.50;;;0.20;;
4837;SDS011;2433;48.768;9.154;2023-11-19T08:55:56;0.47;;;0.30;;
4837;SDS011;2433;48.768;9.154;2023-11-19T08:58:21;0.50;;;0.30;;
4837;SDS011;2433;48.768;9.154;2023-11-19T09:00:47;0.80;;;0.30;;
4837;SDS011;2433;48.768;9.154;2023-11-19T09:03:13;0.50;;;0.30;;
4837;SDS011;2433;48.768;9.154;2023-11-19T09:05:38;0.40;;;0.20;;
4837;SDS011;2433;48.768;9.154;2023-11-19T09:08:04;0.40;;;0.30;;
4837;SDS011;2433;48.768;9.154;2023-11-19T09:10:30;0.73;;;0.40;;
4837;SDS011;2433;48.768;9.154;2023-11-19T09:12:55;1.20;;;0.57;;
4837;SDS011;2433;48.768;9.154;2023-11-19T09:15:21;0.50;;;0.30;;
4837;SDS011;2433;48.768;9.154;2023-11-19T09:17:47;0.40;;;0.20;;
4837;SDS011;2433;48.768;9.154;2023-11-19T09:20:12;1.20;;;0.30;;
4837;SDS011;2433;48.768;9.154;2023-11-19T09:22:40;0.50;;;0.30;;
4837;SDS011;2433;48.768;9.154;2023-11-19T09:25:06;0.90;;;0.30;;
4837;SDS011;2433;48.768;9.154;2023-11-19T09:27:33;0.50;;;0.20;;
4837;SDS011;2433;48.768;9.154;2023-11-19T09:29:58;0.50;;;0.30;;
4837;SDS011;2433;48.768;9.154;2023-11-19T09:32:24;1.23;;;0.30;;
4837;SDS011;2433;48.768;9.154;2023-11-19T09:34:51;0.63;;;0.50;;
4837;SDS011;2433;48.768;9.154;2023-11-19T09:37:17;4.53;;;0.70;;
4837;SDS011;2433;48.768;9.154;2023-11-19T09:39:42;1.03;;;0.50;;
4837;SDS011;2433;48.768;9.154;2023-11-19T09:42:11;0.40;;;0.20;;
4837;SDS011;2433;48.768;9.154;2023-11-19T09:44:37;0.50;;;0.37;;
4837;SDS011;2433;48.768;9.154;2023-11-19T09:47:05;0.43;;;0.30;;
4837;SDS011;2433;48.768;9.154;2023-11-19T09:49:31;0.60;;;0.40;;
4837;SDS011;2433;48.768;9.154;2023-11-19T09:51:56;1.17;;;0.30;;
4837;SDS011;2433;48.768;9.154;2023-11-19T09:54:22;1.00;;;0.30;;
4837;SDS011;2433;48.768;9.154;2023-11-19T09:56:48;1.73;;;0.67;;
4837;SDS011;2433;48.768;9.154;2023-11-19T09:59:14;0.87;;;0.40;;
4837;SDS011;2433;48.768;9.154;2023-11-19T10:01:39;0.57;;;0.37;;
4837;SDS011;2433;48.768;9.154;2023-11-19T10:04:06;0.40;;;0.20;;
4837;SDS011;2433;48.768;9.154;2023-11-19T10:06:32;0.40;;;0.20;;
4837;SDS011;2433;48.768;9.154;2023-11-19T10:08:57;0.53;;;0.30;;
4837;SDS011;2433;48.768;9.154;2023-11-19T10:11:24;1.10;;;0.37;;
4837;SDS011;2433;48.768;9.154;2023-11-19T10:13:51;0.60;;;0.40;;
4837;SDS011;2433;48.768;9.154;2023-11-19T10:16:18;1.00;;;0.40;;
4837;SDS011;2433;48.768;9.154;2023-11-19T10:18:45;0.50;;;0.40;;
4837;SDS011;2433;48.768;9.154;2023-11-19T10:21:14;0.60;;;0.40;;
4837;SDS011;2433;48.768;9.154;2023-11-19T10:26:18;0.90;;;0.40;;
4837;SDS011;2433;48.768;9.154;2023-11-19T10:28:45;0.60;;;0.30;;
4837;SDS011;2433;48.768;9.154;2023-11-19T10:31:12;1.50;;;0.40;;
4837;SDS011;2433;48.768;9.154;2023-11-19T10:33:39;1.43;;;0.30;;
4837;SDS011;2433;48.768;9.154;2023-11-19T10:36:04;0.73;;;0.30;;
4837;SDS011;2433;48.768;9.154;2023-11-19T10:38:30;0.50;;;0.30;;
4837;SDS011;2433;48.768;9.154;2023-11-19T10:40:56;1.00;;;0.40;;
4837;SDS011;2433;48.768;9.154;2023-11-19T10:43:22;0.60;;;0.30;;
4837;SDS011;2433;48.768;9.154;2023-11-19T10:45:48;0.80;;;0.50;;
4837;SDS011;2433;48.768;9.154;2023-11-19T10:48:14;0.60;;;0.30;;
4837;SDS011;2433;48.768;9.154;2023-11-19T10:50:40;0.50;;;0.30;;
4837;SDS011;2433;48.768;9.154;2023-11-19T10:53:07;0.50;;;0.27;;
4837;SDS011;2433;48.768;9.154;2023-11-19T10:55:34;0.50;;;0.30;;
4837;SDS011;2433;48.768;9.154;2023-11-19T10:58:04;0.43;;;0.27;;
4837;SDS011;2433;48.768;9.154;2023-11-19T11:03:24;0.80;;;0.40;;
4837;SDS011;2433;48.768;9.154;2023-11-19T11:05:52;0.60;;;0.40;;
4837;SDS011;2433;48.768;9.154;2023-11-19T11:08:19;0.50;;;0.27;;
4837;SDS011;2433;48.768;9.154;2023-11-19T11:10:52;1.00;;;0.60;;
4837;SDS011;2433;48.768;9.154;2023-11-19T11:13:19;0.50;;;0.40;;
4837;SDS011;2433;48.768;9.154;2023-11-19T11:15:48;0.40;;;0.20;;
4837;SDS011;2433;48.768;9.154;2023-11-19T11:18:15;0.70;;;0.40;;
4837;SDS011;2433;48.768;9.154;2023-11-19T11:20:43;0.67;;;0.40;;
4837;SDS011;2433;48.768;9.154;2023-11-19T11:23:29;3.13;;;0.40;;
4837;SDS011;2433;48.768;9.154;2023-11-19T11:28:54;0.50;;;0.30;;
4837;SDS011;2433;48.768;9.154;2023-11-19T11:39:20;0.50;;;0.30;;
4837;SDS011;2433;48.768;9.154;2023-11-19T11:41:47;0.60;;;0.37;;
4837;SDS011;2433;48.768;9.154;2023-11-19T11:44:13;0.67;;;0.30;;
4837;SDS011;2433;48.768;9.154;2023-11-19T11:49:05;0.50;;;0.20;;
4837;SDS011;2433;48.768;9.154;2023-11-19T11:57:30;1.23;;;0.60;;
4837;SDS011;2433;48.768;9.154;2023-11-19T11:59:42;0.50;;;0.23;;
4837;SDS011;2433;48.768;9.154;2023-11-19T12:02:09;0.50;;;0.30;;
4837;SDS011;2433;48.768;9.154;2023-11-19T12:04:36;0.70;;;0.30;;
4837;SDS011;2433;48.768;9.154;2023-11-19T12:07:06;0.50;;;0.30;;
4837;SDS011;2433;48.768;9.154;2023-11-19T12:09:36;1.03;;;0.40;;
4837;SDS011;2433;48.768;9.154;2023-11-19T12:20:05;0.50;;;0.30;;
4837;SDS011;2433;48.768;9.154;2023-11-19T12:22:35;0.40;;;0.20;;
4837;SDS011;2433;48.768;9.154;2023-11-19T12:25:02;0.50;;;0.30;;
4837;SDS011;2433;48.768;9.154;2023-11-19T12:27:30;0.40;;;0.20;;
4837;SDS011;2433;48.768;9.154;2023-11-19T12:29:55;0.50;;;0.30;;
4837;SDS011;2433;48.768;9.154;2023-11-19T12:32:22;0.53;;;0.30;;
4837;SDS011;2433;48.768;9.154;2023-11-19T12:34:47;1.20;;;0.40;;
4837;SDS011;2433;48.768;9.154;2023-11-19T12:37:13;0.60;;;0.20;;
4837;SDS011;2433;48.768;9.154;2023-11-19T12:39:38;1.20;;;0.37;;
4837;SDS011;2433;48.768;9.154;2023-11-19T12:42:05;0.40;;;0.20;;
4837;SDS011;2433;48.768;9.154;2023-11-19T12:44:31;0.93;;;0.30;;
4837;SDS011;2433;48.768;9.154;2023-11-19T12:49:26;0.77;;;0.20;;
4837;SDS011;2433;48.768;9.154;2023-11-19T12:51:52;0.83;;;0.40;;
4837;SDS011;2433;48.768;9.154;2023-11-19T12:54:17;1.13;;;0.30;;
4837;SDS011;2433;48.768;9.154;2023-11-19T12:56:52;0.47;;;0.30;;
4837;SDS011;2433;48.768;9.154;2023-11-19T12:59:18;0.80;;;0.23;;
4837;SDS011;2433;48.768;9.154;2023-11-19T13:01:56;0.40;;;0.30;;
4837;SDS011;2433;48.768;9.154;2023-11-19T13:04:22;0.47;;;0.27;;
4837;SDS011;2433;48.768;9.154;2023-11-19T13:06:49;0.80;;;0.50;;
4837;SDS011;2433;48.768;9.154;2023-11-19T13:09:49;0.57;;;0.30;;
4837;SDS011;2433;48.768;9.154;2023-11-19T13:12:12;0.50;;;0.20;;
4837;SDS011;2433;48.768;9.154;2023-11-19T13:14:39;2.10;;;0.30;;
4837;SDS011;2433;48.768;9.154;2023-11-19T13:17:07;0.90;;;0.40;;
4837;SDS011;2433;48.768;9.154;2023-11-19T13:19:33;0.60;;;0.40;;
4837;SDS011;2433;48.768;9.154;2023-11-19T13:21:59;1.03;;;0.40;;
4837;SDS011;2433;48.768;9.154;2023-11-19T13:24:25;0.60;;;0.30;;
4837;SDS011;2433;48.768;9.154;2023-11-19T13:26:50;0.50;;;0.20;;
4837;SDS011;2433;48.768;9.154;2023-11-19T13:29:16;0.40;;;0.20;;
4837;SDS011;2433;48.768;9.154;2023-11-19T13:31:41;3.03;;;0.50;;
4837;SDS011;2433;48.768;9.154;2023-11-19T13:34:07;0.50;;;0.30;;
4837;SDS011;2433;48.768;9.154;2023-11-19T13:36:33;0.50;;;0.30;;
4837;SDS011;2433;48.768;9.154;2023-11-19T13:38:59;0.60;;;0.30;;
4837;SDS011;2433;48.768;9.154;2023-11-19T13:41:25;1.97;;;0.57;;
4837;SDS011;2433;48.768;9.154;2023-11-19T13:43:51;2.20;;;0.53;;
4837;SDS011;2433;48.768;9.154;2023-11-19T13:46:17;1.80;;;0.40;;
4837;SDS011;2433;48.768;9.154;2023-11-19T13:48:43;0.70;;;0.37;;
4837;SDS011;2433;48.768;9.154;2023-11-19T13:51:08;0.80;;;0.30;;
4837;SDS011;2433;48.768;9.154;2023-11-19T13:53:35;0.60;;;0.20;;
4837;SDS011;2433;48.768;9.154;2023-11-19T13:56:01;0.50;;;0.20;;
4837;SDS011;2433;48.768;9.154;2023-11-19T13:58:26;0.43;;;0.20;;
4837;SDS011;2433;48.768;9.154;2023-11-19T14:00:52;0.60;;;0.40;;
4837;SDS011;2433;48.768;9.154;2023-11-19T14:03:17;0.40;;;0.20;;
4837;SDS011;2433;48.768;9.154;2023-11-19T14:05:43;1.63;;;0.60;;
4837;SDS011;2433;48.768;9.154;2023-11-19T14:08:09;0.60;;;0.30;;
4837;SDS011;2433;48.768;9.154;2023-11-19T14:10:38;0.40;;;0.20;;
4837;SDS011;2433;48.768;9.154;2023-11-19T14:13:07;0.60;;;0.50;;
4837;SDS011;2433;48.768;9.154;2023-11-19T14:15:33;0.90;;;0.60;;
4837;SDS011;2433;48.768;9.154;2023-11-19T14:17:59;0.70;;;0.33;;
4837;SDS011;2433;48.768;9.154;2023-11-19T14:20:24;0.60;;;0.37;;
4837;SDS011;2433;48.768;9.154;2023-11-19T14:22:50;1.43;;;0.53;;
4837;SDS011;2433;48.768;9.154;2023-11-19T14:25:17;0.60;;;0.30;;
4837;SDS011;2433;48.768;9.154;2023-11-19T14:27:44;0.70;;;0.40;;
4837;SDS011;2433;48.768;9.154;2023-11-19T14:30:11;1.10;;;0.60;;
4837;SDS011;2433;48.768;9.154;2023-11-19T14:32:41;0.50;;;0.30;;
4837;SDS011;2433;48.768;9.154;2023-11-19T14:35:11;0.63;;;0.40;;
4837;SDS011;2433;48.768;9.154;2023-11-19T14:37:36;0.60;;;0.30;;
4837;SDS011;2433;48.768;9.154;2023-11-19T14:40:02;0.50;;;0.27;;
4837;SDS011;2433;48.768;9.154;2023-11-19T14:42:32;0.50;;;0.30;;
4837;SDS011;2433;48.768;9.154;2023-11-19T14:44:57;0.60;;;0.30;;
4837;SDS011;2433;48.768;9.154;2023-11-19T14:47:26;0.60;;;0.40;;
4837;SDS011;2433;48.768;9.154;2023-11-19T14:49:52;0.50;;;0.30;;
4837;SDS011;2433;48.768;9.154;2023-11-19T14:52:22;0.60;;;0.30;;
4837;SDS011;2433;48.768;9.154;2023-11-19T14:54:50;1.90;;;0.70;;
4837;SDS011;2433;48.768;9.154;2023-11-19T14:57:19;0.90;;;0.43;;
4837;SDS011;2433;48.768;9.154;2023-11-19T14:59:44;0.50;;;0.30;;
4837;SDS011;2433;48.768;9.154;2023-11-19T15:02:11;3.07;;;0.30;;
4837;SDS011;2433;48.768;9.154;2023-11-19T15:04:36;0.93;;;0.67;;
4837;SDS011;2433;48.768;9.154;2023-11-19T15:07:02;0.60;;;0.30;;
4837;SDS011;2433;48.768;9.154;2023-11-19T15:09:29;0.80;;;0.40;;
4837;SDS011;2433;48.768;9.154;2023-11-19T15:11:55;0.77;;;0.40;;
4837;SDS011;2433;48.768;9.154;2023-11-19T15:14:21;0.50;;;0.20;;
4837;SDS011;2433;48.768;9.154;2023-11-19T15:16:46;0.80;;;0.30;;
4837;SDS011;2433;48.768;9.154;2023-11-19T15:19:12;0.83;;;0.40;;
4837;SDS011;2433;48.768;9.154;2023-11-19T15:21:40;0.87;;;0.40;;
4837;SDS011;2433;48.768;9.154;2023-11-19T15:24:06;0.50;;;0.30;;
4837;SDS011;2433;48.768;9.154;2023-11-19T15:26:33;0.40;;;0.20;;
4837;SDS011;2433;48.768;9.154;2023-11-19T15:28:59;0.47;;;0.30;;
4837;SDS011;2433;48.768;9.154;2023-11-19T15:31:25;1.60;;;0.40;;
4837;SDS011;2433;48.768;9.154;2023-11-19T15:33:50;0.50;;;0.30;;
4837;SDS011;2433;48.768;9.154;2023-11-19T15:36:17;0.50;;;0.30;;
4837;SDS011;2433;48.768;9.154;2023-11-19T15:38:43;1.77;;;0.37;;
4837;SDS011;2433;48.768;9.154;2023-11-19T15:41:09;0.83;;;0.40;;
4837;SDS011;2433;48.768;9.154;2023-11-19T15:43:35;2.10;;;0.30;;
4837;SDS011;2433;48.768;9.154;2023-11-19T15:46:01;0.50;;;0.30;;